createdAt,value
2018-06-07T00:00:01.031Z,935.41
2018-06-07T00:01:01.036Z,935.43
2018-06-07T00:02:01.038Z,935.45
2018-06-07T00:03:01.040Z,935.47
2018-06-07T00:04:01.045Z,935.45
2018-06-07T00:05:01.047Z,935.42
2018-06-07T00:06:01.051Z,935.41
2018-06-07T00:07:01.053Z,935.39
2018-06-07T00:08:01.055Z,935.40
2018-06-07T00:09:01.068Z,935.34
2018-06-07T00:10:01.061Z,935.31
2018-06-07T00:11:01.065Z,935.32
2018-06-07T00:12:01.066Z,935.29
2018-06-07T00:13:01.071Z,935.30
2018-06-07T00:14:01.074Z,935.29
2018-06-07T00:15:01.077Z,935.31
2018-06-07T00:16:01.080Z,935.28
2018-06-07T00:17:01.083Z,935.28
2018-06-07T00:18:01.085Z,935.32
2018-06-07T00:19:01.089Z,935.27
2018-06-07T00:20:01.091Z,935.27
2018-06-07T00:21:01.093Z,935.29
2018-06-07T00:22:01.098Z,935.23
2018-06-07T00:23:01.099Z,935.28
2018-06-07T00:24:01.103Z,935.25
2018-06-07T00:25:01.106Z,935.26
2018-06-07T00:26:01.109Z,935.25
2018-06-07T00:27:01.112Z,935.24
2018-06-07T00:28:01.114Z,935.25
2018-06-07T00:29:01.118Z,935.27
2018-06-07T00:30:01.121Z,935.25
2018-06-07T00:31:01.124Z,935.27
2018-06-07T00:32:01.127Z,935.27
2018-06-07T00:33:01.129Z,935.31
2018-06-07T00:34:01.132Z,935.31
2018-06-07T00:35:01.135Z,935.36
2018-06-07T00:36:01.138Z,935.38
2018-06-07T00:37:01.140Z,935.38
2018-06-07T00:38:01.142Z,935.34
2018-06-07T00:39:01.148Z,935.37
2018-06-07T00:40:01.148Z,935.34
2018-06-07T00:41:01.153Z,935.37
2018-06-07T00:42:01.155Z,935.37
2018-06-07T00:43:01.157Z,935.36
2018-06-07T00:44:01.161Z,935.31
2018-06-07T00:45:01.163Z,935.31
2018-06-07T00:46:01.166Z,935.34
2018-06-07T00:47:01.168Z,935.32
2018-06-07T00:48:01.171Z,935.29
2018-06-07T00:49:01.175Z,935.30
2018-06-07T00:50:01.177Z,935.29
2018-06-07T00:51:01.179Z,935.28
2018-06-07T00:52:01.182Z,935.29
2018-06-07T00:53:01.186Z,935.26
2018-06-07T00:54:01.190Z,935.24
2018-06-07T00:55:01.192Z,935.25
2018-06-07T00:56:01.195Z,935.24
2018-06-07T00:57:01.198Z,935.28
2018-06-07T00:58:01.203Z,935.26
2018-06-07T00:59:01.203Z,935.23
2018-06-07T01:00:01.205Z,935.23
2018-06-07T01:01:01.210Z,935.22
2018-06-07T01:02:01.212Z,935.21
2018-06-07T01:03:01.218Z,935.20
2018-06-07T01:04:01.217Z,935.22
2018-06-07T01:05:01.220Z,935.22
2018-06-07T01:06:01.224Z,935.21
2018-06-07T01:07:01.225Z,935.20
2018-06-07T01:08:01.228Z,935.22
2018-06-07T01:09:01.231Z,935.24
2018-06-07T01:10:01.235Z,935.27
2018-06-07T01:11:01.238Z,935.27
2018-06-07T01:12:01.240Z,935.26
2018-06-07T01:13:01.244Z,935.28
2018-06-07T01:14:01.246Z,935.28
2018-06-07T01:15:01.249Z,935.31
2018-06-07T01:16:01.251Z,935.29
2018-06-07T01:17:01.253Z,935.35
2018-06-07T01:18:01.257Z,935.36
2018-06-07T01:19:01.259Z,935.33
2018-06-07T01:20:01.262Z,935.39
2018-06-07T01:21:01.267Z,935.40
2018-06-07T01:22:01.271Z,935.42
2018-06-07T01:23:01.273Z,935.43
2018-06-07T01:24:01.272Z,935.40
2018-06-07T01:25:01.276Z,935.45
2018-06-07T01:26:01.279Z,935.46
2018-06-07T01:27:01.280Z,935.43
2018-06-07T01:28:01.285Z,935.46
2018-06-07T01:29:01.286Z,935.45
2018-06-07T01:30:01.291Z,935.48
2018-06-07T01:31:01.292Z,935.47
2018-06-07T01:32:01.296Z,935.50
2018-06-07T01:33:01.299Z,935.50
2018-06-07T01:34:01.301Z,935.53
2018-06-07T01:35:01.302Z,935.55
2018-06-07T01:36:01.306Z,935.57
2018-06-07T01:37:01.308Z,935.56
2018-06-07T01:38:01.317Z,935.58
2018-06-07T01:39:01.315Z,935.57
2018-06-07T01:40:01.318Z,935.58
2018-06-07T01:41:01.319Z,935.59
2018-06-07T01:42:01.322Z,935.61
2018-06-07T01:43:01.324Z,935.63
2018-06-07T01:44:01.326Z,935.61
2018-06-07T01:45:01.330Z,935.61
2018-06-07T01:46:01.332Z,935.60
2018-06-07T01:47:01.335Z,935.63
2018-06-07T01:48:01.337Z,935.61
2018-06-07T01:49:01.340Z,935.60
2018-06-07T01:50:01.346Z,935.63
2018-06-07T01:51:01.347Z,935.63
2018-06-07T01:52:01.348Z,935.64
2018-06-07T01:53:01.352Z,935.59
2018-06-07T01:54:01.355Z,935.60
2018-06-07T01:55:01.360Z,935.59
2018-06-07T01:56:01.357Z,935.58
2018-06-07T01:57:01.361Z,935.59
2018-06-07T01:58:01.365Z,935.57
2018-06-07T01:59:01.369Z,935.61
2018-06-07T02:00:01.372Z,935.62
2018-06-07T02:01:01.373Z,935.60
2018-06-07T02:02:01.377Z,935.64
2018-06-07T02:03:01.377Z,935.61
2018-06-07T02:04:01.380Z,935.66
2018-06-07T02:05:01.382Z,935.64
2018-06-07T02:06:01.385Z,935.69
2018-06-07T02:07:01.387Z,935.65
2018-06-07T02:08:01.390Z,935.66
2018-06-07T02:09:01.393Z,935.65
2018-06-07T02:10:01.395Z,935.65
2018-06-07T02:11:01.398Z,935.68
2018-06-07T02:12:01.401Z,935.69
2018-06-07T02:13:01.438Z,935.70
2018-06-07T02:14:01.406Z,935.69
2018-06-07T02:15:01.409Z,935.71
2018-06-07T02:16:01.411Z,935.66
2018-06-07T02:17:01.414Z,935.66
2018-06-07T02:18:01.463Z,935.67
2018-06-07T02:19:01.422Z,935.69
2018-06-07T02:20:01.423Z,935.69
2018-06-07T02:21:01.425Z,935.74
2018-06-07T02:22:01.429Z,935.75
2018-06-07T02:23:01.431Z,935.76
2018-06-07T02:24:01.434Z,935.80
2018-06-07T02:25:01.436Z,935.87
2018-06-07T02:26:01.439Z,935.85
2018-06-07T02:27:01.440Z,935.87
2018-06-07T02:28:01.443Z,935.86
2018-06-07T02:29:01.445Z,935.94
2018-06-07T02:30:01.451Z,935.94
2018-06-07T02:31:01.450Z,935.91
2018-06-07T02:32:01.453Z,935.90
2018-06-07T02:33:01.456Z,935.89
2018-06-07T02:34:01.459Z,935.94
2018-06-07T02:35:01.460Z,935.94
2018-06-07T02:36:01.463Z,935.95
2018-06-07T02:37:01.466Z,935.97
2018-06-07T02:38:01.496Z,936.00
2018-06-07T02:39:01.470Z,935.97
2018-06-07T02:40:01.473Z,936.00
2018-06-07T02:41:01.477Z,936.01
2018-06-07T02:42:01.484Z,935.94
2018-06-07T02:43:01.481Z,935.95
2018-06-07T02:44:01.483Z,935.96
2018-06-07T02:45:01.486Z,935.98
2018-06-07T02:46:01.500Z,935.96
2018-06-07T02:47:01.497Z,936.00
2018-06-07T02:48:01.502Z,936.01
2018-06-07T02:49:01.496Z,936.00
2018-06-07T02:50:01.499Z,936.03
2018-06-07T02:51:01.500Z,936.04
2018-06-07T02:52:01.504Z,936.05
2018-06-07T02:53:01.506Z,936.07
2018-06-07T02:54:01.509Z,936.07
2018-06-07T02:55:01.512Z,936.05
2018-06-07T02:56:01.513Z,936.07
2018-06-07T02:57:01.517Z,936.10
2018-06-07T02:58:01.518Z,936.11
2018-06-07T02:59:01.520Z,936.14
2018-06-07T03:00:01.522Z,936.19
2018-06-07T03:01:01.532Z,936.16
2018-06-07T03:02:01.527Z,936.19
2018-06-07T03:03:01.530Z,936.16
2018-06-07T03:04:01.535Z,936.16
2018-06-07T03:05:01.534Z,936.17
2018-06-07T03:06:01.540Z,936.19
2018-06-07T03:07:01.538Z,936.21
2018-06-07T03:08:01.540Z,936.22
2018-06-07T03:09:01.544Z,936.22
2018-06-07T03:10:01.546Z,936.28
2018-06-07T03:11:01.548Z,936.24
2018-06-07T03:12:01.550Z,936.24
2018-06-07T03:13:01.557Z,936.26
2018-06-07T03:14:01.554Z,936.23
2018-06-07T03:15:01.557Z,936.22
2018-06-07T03:16:01.559Z,936.25
2018-06-07T03:17:01.561Z,936.25
2018-06-07T03:18:01.564Z,936.27
2018-06-07T03:19:01.565Z,936.32
2018-06-07T03:20:01.568Z,936.32
2018-06-07T03:21:01.572Z,936.34
2018-06-07T03:22:01.574Z,936.31
2018-06-07T03:23:01.576Z,936.35
2018-06-07T03:24:01.578Z,936.35
2018-06-07T03:25:01.582Z,936.38
2018-06-07T03:26:01.583Z,936.35
2018-06-07T03:27:01.584Z,936.33
2018-06-07T03:28:01.586Z,936.37
2018-06-07T03:29:01.589Z,936.34
2018-06-07T03:30:01.595Z,936.35
2018-06-07T03:31:01.596Z,936.34
2018-06-07T03:32:01.599Z,936.33
2018-06-07T03:33:01.599Z,936.34
2018-06-07T03:34:01.601Z,936.32
2018-06-07T03:35:01.603Z,936.37
2018-06-07T03:36:01.604Z,936.38
2018-06-07T03:37:01.606Z,936.42
2018-06-07T03:38:01.609Z,936.38
2018-06-07T03:39:01.610Z,936.42
2018-06-07T03:40:01.619Z,936.46
2018-06-07T03:41:01.614Z,936.43
2018-06-07T03:42:01.617Z,936.45
2018-06-07T03:43:01.617Z,936.50
2018-06-07T03:44:01.620Z,936.54
2018-06-07T03:45:01.628Z,936.57
2018-06-07T03:46:01.626Z,936.51
2018-06-07T03:47:01.627Z,936.50
2018-06-07T03:48:01.628Z,936.50
2018-06-07T03:49:01.634Z,936.55
2018-06-07T03:50:01.635Z,936.53
2018-06-07T03:51:01.638Z,936.55
2018-06-07T03:52:01.636Z,936.54
2018-06-07T03:53:01.639Z,936.50
2018-06-07T03:54:01.641Z,936.56
2018-06-07T03:55:01.644Z,936.54
2018-06-07T03:56:01.644Z,936.52
2018-06-07T03:57:01.646Z,936.55
2018-06-07T03:58:01.649Z,936.56
2018-06-07T03:59:01.650Z,936.59
2018-06-07T04:00:01.654Z,936.56
2018-06-07T04:01:01.654Z,936.59
2018-06-07T04:02:01.657Z,936.60
2018-06-07T04:03:01.659Z,936.55
2018-06-07T04:04:01.661Z,936.52
2018-06-07T04:05:01.662Z,936.55
2018-06-07T04:06:01.668Z,936.59
2018-06-07T04:07:01.667Z,936.56
2018-06-07T04:08:01.671Z,936.59
2018-06-07T04:09:01.672Z,936.59
2018-06-07T04:10:01.675Z,936.57
2018-06-07T04:11:01.676Z,936.61
2018-06-07T04:12:01.697Z,936.62
2018-06-07T04:13:01.680Z,936.61
2018-06-07T04:14:01.684Z,936.64
2018-06-07T04:15:01.691Z,936.67
2018-06-07T04:16:01.693Z,936.69
2018-06-07T04:17:01.689Z,936.71
2018-06-07T04:18:01.692Z,936.73
2018-06-07T04:19:01.693Z,936.74
2018-06-07T04:20:01.695Z,936.75
2018-06-07T04:21:01.697Z,936.79
2018-06-07T04:22:01.701Z,936.78
2018-06-07T04:23:01.702Z,936.77
2018-06-07T04:24:01.705Z,936.79
2018-06-07T04:25:01.706Z,936.79
2018-06-07T04:26:01.709Z,936.81
2018-06-07T04:27:01.711Z,936.82
2018-06-07T04:28:01.713Z,936.86
2018-06-07T04:29:01.716Z,936.84
2018-06-07T04:30:01.719Z,936.81
2018-06-07T04:31:01.721Z,936.83
2018-06-07T04:32:01.748Z,936.85
2018-06-07T04:33:01.727Z,936.89
2018-06-07T04:34:01.728Z,936.91
2018-06-07T04:35:01.731Z,936.90
2018-06-07T04:36:01.737Z,936.93
2018-06-07T04:37:01.736Z,936.92
2018-06-07T04:38:01.786Z,936.95
2018-06-07T04:39:01.740Z,936.97
2018-06-07T04:40:01.747Z,937.00
2018-06-07T04:41:01.746Z,937.00
2018-06-07T04:42:01.748Z,937.01
2018-06-07T04:43:01.751Z,937.03
2018-06-07T04:44:01.754Z,937.03
2018-06-07T04:45:01.761Z,937.07
2018-06-07T04:46:01.759Z,937.11
2018-06-07T04:47:01.760Z,937.09
2018-06-07T04:48:01.763Z,937.08
2018-06-07T04:49:01.766Z,937.11
2018-06-07T04:50:01.770Z,937.14
2018-06-07T04:51:01.773Z,937.13
2018-06-07T04:52:01.774Z,937.20
2018-06-07T04:53:01.776Z,937.21
2018-06-07T04:54:01.780Z,937.21
2018-06-07T04:55:01.783Z,937.19
2018-06-07T04:56:01.787Z,937.22
2018-06-07T04:57:01.788Z,937.19
2018-06-07T04:58:01.792Z,937.20
2018-06-07T04:59:01.792Z,937.18
2018-06-07T05:00:01.795Z,937.21
2018-06-07T05:01:01.799Z,937.24
2018-06-07T05:02:01.802Z,937.26
2018-06-07T05:03:01.803Z,937.25
2018-06-07T05:04:01.806Z,937.28
2018-06-07T05:05:01.809Z,937.28
2018-06-07T05:06:01.814Z,937.29
2018-06-07T05:07:01.815Z,937.33
2018-06-07T05:08:01.819Z,937.31
2018-06-07T05:09:01.820Z,937.37
2018-06-07T05:10:01.825Z,937.28
2018-06-07T05:11:01.826Z,937.32
2018-06-07T05:12:01.829Z,937.31
2018-06-07T05:13:01.833Z,937.32
2018-06-07T05:14:01.834Z,937.32
2018-06-07T05:15:01.877Z,937.33
2018-06-07T05:16:01.839Z,937.34
2018-06-07T05:17:01.844Z,937.33
2018-06-07T05:18:01.846Z,937.34
2018-06-07T05:19:01.849Z,937.33
2018-06-07T05:20:01.852Z,937.32
2018-06-07T05:21:01.855Z,937.33
2018-06-07T05:22:01.857Z,937.36
2018-06-07T05:23:01.860Z,937.36
2018-06-07T05:24:01.861Z,937.33
2018-06-07T05:25:01.865Z,937.36
2018-06-07T05:26:01.893Z,937.36
2018-06-07T05:27:01.869Z,937.35
2018-06-07T05:28:01.874Z,937.39
2018-06-07T05:29:01.876Z,937.41
2018-06-07T05:30:01.880Z,937.44
2018-06-07T05:31:01.887Z,937.40
2018-06-07T05:32:01.888Z,937.39
2018-06-07T05:33:01.888Z,937.37
2018-06-07T05:34:01.890Z,937.43
2018-06-07T05:35:01.893Z,937.46
2018-06-07T05:36:01.895Z,937.45
2018-06-07T05:37:01.898Z,937.45
2018-06-07T05:38:01.901Z,937.43
2018-06-07T05:39:01.905Z,937.41
2018-06-07T05:40:01.907Z,937.44
2018-06-07T05:41:01.910Z,937.45
2018-06-07T05:42:01.913Z,937.46
2018-06-07T05:43:01.917Z,937.45
2018-06-07T05:44:01.918Z,937.44
2018-06-07T05:45:01.924Z,937.41
2018-06-07T05:46:01.925Z,937.44
2018-06-07T05:47:01.927Z,937.43
2018-06-07T05:48:01.931Z,937.49
2018-06-07T05:49:01.933Z,937.51
2018-06-07T05:50:01.940Z,937.52
2018-06-07T05:51:01.938Z,937.53
2018-06-07T05:52:02.025Z,937.46
2018-06-07T05:53:01.944Z,937.51
2018-06-07T05:54:01.947Z,937.49
2018-06-07T05:55:01.949Z,937.48
2018-06-07T05:56:01.967Z,937.44
2018-06-07T05:57:01.956Z,937.45
2018-06-07T05:58:01.959Z,937.43
2018-06-07T05:59:01.961Z,937.48
2018-06-07T06:00:01.964Z,937.50
2018-06-07T06:01:01.987Z,937.49
2018-06-07T06:02:01.972Z,937.48
2018-06-07T06:03:02.042Z,937.44
2018-06-07T06:04:01.978Z,937.50
2018-06-07T06:05:01.987Z,937.50
2018-06-07T06:06:01.990Z,937.51
2018-06-07T06:07:01.984Z,937.50
2018-06-07T06:08:01.988Z,937.51
2018-06-07T06:09:01.993Z,937.53
2018-06-07T06:10:01.994Z,937.55
2018-06-07T06:11:01.997Z,937.57
2018-06-07T06:12:02.000Z,937.57
2018-06-07T06:13:02.004Z,937.51
2018-06-07T06:14:02.006Z,937.55
2018-06-07T06:15:02.009Z,937.52
2018-06-07T06:16:02.013Z,937.55
2018-06-07T06:17:02.015Z,937.54
2018-06-07T06:18:02.018Z,937.54
2018-06-07T06:19:02.021Z,937.51
2018-06-07T06:20:02.026Z,937.56
2018-06-07T06:21:02.027Z,937.55
2018-06-07T06:22:02.031Z,937.57
2018-06-07T06:23:02.034Z,937.57
2018-06-07T06:24:02.038Z,937.57
2018-06-07T06:25:02.044Z,937.59
2018-06-07T06:26:02.043Z,937.58
2018-06-07T06:27:02.044Z,937.60
2018-06-07T06:28:02.049Z,937.60
2018-06-07T06:29:02.059Z,937.60
2018-06-07T06:30:02.055Z,937.60
2018-06-07T06:31:02.057Z,937.61
2018-06-07T06:32:02.061Z,937.64
2018-06-07T06:33:02.064Z,937.66
2018-06-07T06:34:02.067Z,937.67
2018-06-07T06:35:02.071Z,937.61
2018-06-07T06:36:02.072Z,937.57
2018-06-07T06:37:02.080Z,937.61
2018-06-07T06:38:02.081Z,937.62
2018-06-07T06:39:02.116Z,937.60
2018-06-07T06:40:02.109Z,937.65
2018-06-07T06:41:02.089Z,937.62
2018-06-07T06:42:02.092Z,937.66
2018-06-07T06:43:02.098Z,937.61
2018-06-07T06:44:02.114Z,937.61
2018-06-07T06:45:02.103Z,937.59
2018-06-07T06:46:02.109Z,937.58
2018-06-07T06:47:02.107Z,937.57
2018-06-07T06:48:02.110Z,937.62
2018-06-07T06:49:02.115Z,937.64
2018-06-07T06:50:02.119Z,937.65
2018-06-07T06:51:02.122Z,937.60
2018-06-07T06:52:02.122Z,937.59
2018-06-07T06:53:02.125Z,937.54
2018-06-07T06:54:02.129Z,937.58
2018-06-07T06:55:02.136Z,937.54
2018-06-07T06:56:02.207Z,937.61
2018-06-07T06:57:02.146Z,937.58
2018-06-07T06:58:02.142Z,937.58
2018-06-07T06:59:02.145Z,937.60
2018-06-07T07:00:02.149Z,937.57
2018-06-07T07:01:02.152Z,937.61
2018-06-07T07:02:02.156Z,937.58
2018-06-07T07:03:02.161Z,937.63
2018-06-07T07:04:02.165Z,937.62
2018-06-07T07:05:02.165Z,937.60
2018-06-07T07:06:02.173Z,937.64
2018-06-07T07:07:02.180Z,937.67
2018-06-07T07:08:02.177Z,937.63
2018-06-07T07:09:02.198Z,937.67
2018-06-07T07:10:02.187Z,937.67
2018-06-07T07:11:02.189Z,937.67
2018-06-07T07:12:02.191Z,937.67
2018-06-07T07:13:02.195Z,937.64
2018-06-07T07:14:02.199Z,937.68
2018-06-07T07:15:02.202Z,937.66
2018-06-07T07:16:02.206Z,937.68
2018-06-07T07:17:02.210Z,937.66
2018-06-07T07:18:02.216Z,937.67
2018-06-07T07:19:02.217Z,937.65
2018-06-07T07:20:02.232Z,937.65
2018-06-07T07:21:02.225Z,937.63
2018-06-07T07:22:02.230Z,937.63
2018-06-07T07:23:02.234Z,937.60
2018-06-07T07:24:02.237Z,937.64
2018-06-07T07:25:02.243Z,937.64
2018-06-07T07:26:02.250Z,937.65
2018-06-07T07:27:02.249Z,937.68
2018-06-07T07:28:02.253Z,937.70
2018-06-07T07:29:02.259Z,937.65
2018-06-07T07:30:02.262Z,937.66
2018-06-07T07:31:02.266Z,937.68
2018-06-07T07:32:02.270Z,937.70
2018-06-07T07:33:02.275Z,937.68
2018-06-07T07:34:02.279Z,937.66
2018-06-07T07:35:02.438Z,937.70
2018-06-07T07:36:02.289Z,937.66
2018-06-07T07:37:02.292Z,937.67
2018-06-07T07:38:02.296Z,937.65
2018-06-07T07:39:02.300Z,937.68
2018-06-07T07:40:02.304Z,937.69
2018-06-07T07:41:02.309Z,937.67
2018-06-07T07:42:02.317Z,937.69
2018-06-07T07:43:02.317Z,937.69
2018-06-07T07:44:02.321Z,937.72
2018-06-07T07:45:02.326Z,937.71
2018-06-07T07:46:02.330Z,937.72
2018-06-07T07:47:02.334Z,937.68
2018-06-07T07:48:02.341Z,937.69
2018-06-07T07:49:02.348Z,937.68
2018-06-07T07:50:02.361Z,937.73
2018-06-07T07:51:02.354Z,937.73
2018-06-07T07:52:02.358Z,937.73
2018-06-07T07:53:02.365Z,937.74
2018-06-07T07:54:02.369Z,937.72
2018-06-07T07:55:02.372Z,937.75
2018-06-07T07:56:02.379Z,937.70
2018-06-07T07:57:02.385Z,937.72
2018-06-07T07:58:02.390Z,937.75
2018-06-07T07:59:02.393Z,937.75
2018-06-07T08:00:02.400Z,937.75
2018-06-07T08:01:02.445Z,937.77
2018-06-07T08:02:02.409Z,937.76
2018-06-07T08:03:02.415Z,937.76
2018-06-07T08:04:02.420Z,937.75
2018-06-07T08:05:02.452Z,937.77
2018-06-07T08:06:02.432Z,937.75
2018-06-07T08:07:02.436Z,937.73
2018-06-07T08:08:02.441Z,937.80
2018-06-07T08:09:02.448Z,937.79
2018-06-07T08:10:02.455Z,937.75
2018-06-07T08:11:02.458Z,937.79
2018-06-07T08:12:02.464Z,937.86
2018-06-07T08:13:02.472Z,937.85
2018-06-07T08:14:02.498Z,937.91
2018-06-07T08:15:02.485Z,937.90
2018-06-07T08:16:02.491Z,937.85
2018-06-07T08:17:02.498Z,937.89
2018-06-07T08:18:02.507Z,937.91
2018-06-07T08:19:02.513Z,937.98
2018-06-07T08:20:02.521Z,938.01
2018-06-07T08:21:02.531Z,937.89
2018-06-07T08:22:02.540Z,937.92
2018-06-07T08:23:02.548Z,937.94
2018-06-07T08:24:02.557Z,937.87
2018-06-07T08:25:02.696Z,937.93
2018-06-07T08:26:02.585Z,937.93
2018-06-07T08:27:02.590Z,937.95
2018-06-07T08:28:02.600Z,937.86
2018-06-07T08:29:02.609Z,937.84
2018-06-07T08:30:02.621Z,937.88
2018-06-07T08:31:02.631Z,937.91
2018-06-07T08:32:02.640Z,937.95
2018-06-07T08:33:02.652Z,937.90
2018-06-07T08:34:02.662Z,938.03
2018-06-07T08:35:02.675Z,938.01
2018-06-07T08:36:02.685Z,937.98
2018-06-07T08:37:02.696Z,938.00
2018-06-07T08:38:02.706Z,938.06
2018-06-07T08:39:02.718Z,938.04
2018-06-07T08:40:02.729Z,937.95
2018-06-07T08:41:02.742Z,938.08
2018-06-07T08:42:02.762Z,938.07
2018-06-07T08:43:02.767Z,938.09
2018-06-07T08:44:02.781Z,938.05
2018-06-07T08:45:02.812Z,938.03
2018-06-07T08:46:02.808Z,938.03
2018-06-07T08:47:02.822Z,938.06
2018-06-07T08:48:02.836Z,938.06
2018-06-07T08:49:02.849Z,938.04
2018-06-07T08:50:02.864Z,938.07
2018-06-07T08:51:02.878Z,938.06
2018-06-07T08:52:02.894Z,938.07
2018-06-07T08:53:02.908Z,938.06
2018-06-07T08:54:02.927Z,938.02
2018-06-07T08:55:02.941Z,938.03
2018-06-07T08:56:02.954Z,938.01
2018-06-07T08:57:02.969Z,938.05
2018-06-07T08:58:02.986Z,938.03
2018-06-07T08:59:03.000Z,938.04
2018-06-07T09:00:03.015Z,938.01
2018-06-07T09:01:03.059Z,938.01
2018-06-07T09:02:03.047Z,937.98
2018-06-07T09:03:03.062Z,938.04
2018-06-07T09:04:03.077Z,937.99
2018-06-07T09:05:03.094Z,938.02
2018-06-07T09:06:03.110Z,937.93
2018-06-07T09:07:03.129Z,937.91
2018-06-07T09:08:03.139Z,937.93
2018-06-07T09:09:03.159Z,937.89
2018-06-07T09:10:03.171Z,937.86
2018-06-07T09:11:03.186Z,937.89
2018-06-07T09:12:03.196Z,937.89
2018-06-07T09:13:03.210Z,937.86
2018-06-07T09:14:03.225Z,937.86
2018-06-07T09:15:03.235Z,937.84
2018-06-07T09:16:03.251Z,937.88
2018-06-07T09:17:03.260Z,937.92
2018-06-07T09:18:03.272Z,937.87
2018-06-07T09:19:03.282Z,937.85
2018-06-07T09:20:03.294Z,937.83
2018-06-07T09:21:03.307Z,937.78
2018-06-07T09:22:03.317Z,937.85
2018-06-07T09:23:03.327Z,937.84
2018-06-07T09:24:03.337Z,937.81
2018-06-07T09:25:03.511Z,937.85
2018-06-07T09:26:03.448Z,937.87
2018-06-07T09:27:03.440Z,937.91
2018-06-07T09:28:03.392Z,937.90
2018-06-07T09:29:03.384Z,937.90
2018-06-07T09:30:03.395Z,937.89
2018-06-07T09:31:03.401Z,937.91
2018-06-07T09:32:03.411Z,937.93
2018-06-07T09:33:03.420Z,937.90
2018-06-07T09:34:03.430Z,937.88
2018-06-07T09:35:03.438Z,937.90
2018-06-07T09:36:03.446Z,937.92
2018-06-07T09:37:03.453Z,937.90
2018-06-07T09:38:03.464Z,937.92
2018-06-07T09:39:03.469Z,937.88
2018-06-07T09:40:03.478Z,937.86
2018-06-07T09:41:03.762Z,937.85
2018-06-07T09:42:03.666Z,937.84
2018-06-07T09:43:03.502Z,937.80
2018-06-07T09:44:03.541Z,937.80
2018-06-07T09:45:03.522Z,937.80
2018-06-07T09:46:03.525Z,937.80
2018-06-07T09:47:03.532Z,937.80
2018-06-07T09:48:03.539Z,937.80
2018-06-07T10:08:44.306Z,937.76
2018-06-07T10:09:44.307Z,937.77
2018-06-07T10:10:44.317Z,937.76
2018-06-07T10:11:44.322Z,937.75
2018-06-07T10:12:44.328Z,937.74
2018-06-07T10:13:44.335Z,937.76
2018-06-07T10:14:44.399Z,937.71
2018-06-07T10:15:44.384Z,937.74
2018-06-07T10:16:44.374Z,937.71
2018-06-07T10:17:44.403Z,937.72
2018-06-07T10:18:44.380Z,937.72
2018-06-07T10:19:44.384Z,937.71
2018-06-07T10:20:44.395Z,937.68
2018-06-07T10:21:44.505Z,937.72
2018-06-07T10:22:44.409Z,937.75
2018-06-07T10:23:44.417Z,937.73
2018-06-07T10:24:44.423Z,937.74
2018-06-07T10:25:44.434Z,937.73
2018-06-07T10:26:44.442Z,937.75
2018-06-07T10:27:44.462Z,937.76
2018-06-07T10:28:44.458Z,937.71
2018-06-07T10:29:44.467Z,937.71
2018-06-07T10:30:44.476Z,937.70
2018-06-07T10:31:44.483Z,937.72
2018-06-07T10:32:44.492Z,937.69
2018-06-07T10:33:44.501Z,937.69
2018-06-07T10:34:44.509Z,937.68
2018-06-07T10:35:44.578Z,937.67
2018-06-07T10:36:44.528Z,937.69
2018-06-07T10:37:44.533Z,937.67
2018-06-07T10:38:44.541Z,937.68
2018-06-07T10:39:44.550Z,937.66
2018-06-07T10:40:44.564Z,937.66
2018-06-07T10:41:44.638Z,937.66
2018-06-07T10:42:44.630Z,937.70
2018-06-07T10:43:45.033Z,937.68
2018-06-07T10:44:44.591Z,937.70
2018-06-07T10:45:44.672Z,937.66
2018-06-07T10:46:44.803Z,937.71
2018-06-07T10:47:44.891Z,937.72
2018-06-07T10:48:44.995Z,937.67
2018-06-07T10:49:44.940Z,937.66
2018-06-07T10:50:44.767Z,937.68
2018-06-07T10:51:44.777Z,937.71
2018-06-07T10:52:44.936Z,937.70
2018-06-07T10:53:44.972Z,937.72
2018-06-07T10:54:44.883Z,937.69
2018-06-07T10:55:44.850Z,937.68
2018-06-07T10:56:44.845Z,937.65
2018-06-07T10:57:44.860Z,937.74
2018-06-07T10:58:45.024Z,937.67
2018-06-07T10:59:44.911Z,937.72
2018-06-07T11:00:44.919Z,937.69
2018-06-07T11:01:45.156Z,937.72
2018-06-07T11:02:44.944Z,937.69
2018-06-07T11:03:44.771Z,937.68
2018-06-07T11:04:44.952Z,937.64
2018-06-07T11:05:45.027Z,937.62
2018-06-07T11:06:44.998Z,937.63
2018-06-07T11:07:44.971Z,937.60
2018-06-07T11:08:45.112Z,937.58
2018-06-07T11:09:45.105Z,937.62
2018-06-07T11:10:44.964Z,937.61
2018-06-07T11:11:45.065Z,937.61
2018-06-07T11:12:45.015Z,937.58
2018-06-07T11:13:45.257Z,937.58
2018-06-07T11:14:44.935Z,937.56
2018-06-07T11:15:44.971Z,937.56
2018-06-07T11:16:45.089Z,937.59
2018-06-07T11:17:45.060Z,937.58
2018-06-07T11:18:45.019Z,937.56
2018-06-07T11:19:44.971Z,937.58
2018-06-07T11:20:45.088Z,937.55
2018-06-07T11:21:45.087Z,937.57
2018-06-07T11:22:45.203Z,937.58
2018-06-07T11:23:45.960Z,937.59
2018-06-07T11:24:45.080Z,937.59
2018-06-07T11:25:45.125Z,937.60
2018-06-07T11:26:45.163Z,937.59
2018-06-07T11:27:45.135Z,937.57
2018-06-07T11:28:44.922Z,937.56
2018-06-07T11:29:45.169Z,937.54
2018-06-07T11:30:45.153Z,937.53
2018-06-07T11:31:45.097Z,937.54
2018-06-07T11:32:45.209Z,937.53
2018-06-07T11:33:45.054Z,937.52
2018-06-07T11:34:45.294Z,937.49
2018-06-07T11:35:45.339Z,937.48
2018-06-07T11:36:45.195Z,937.50
2018-06-07T11:37:45.199Z,937.47
2018-06-07T11:38:45.212Z,937.46
2018-06-07T11:39:45.248Z,937.43
2018-06-07T11:40:45.329Z,937.43
2018-06-07T11:41:45.260Z,937.41
2018-06-07T11:42:45.290Z,937.40
2018-06-07T11:43:45.387Z,937.42
2018-06-07T11:44:45.153Z,937.39
2018-06-07T11:45:45.209Z,937.43
2018-06-07T11:46:45.203Z,937.41
2018-06-07T11:47:45.099Z,937.39
2018-06-07T11:48:45.115Z,937.43
2018-06-07T11:49:45.494Z,937.43
2018-06-07T11:50:45.263Z,937.40
2018-06-07T11:51:45.243Z,937.40
2018-06-07T11:52:45.213Z,937.40
2018-06-07T11:53:45.348Z,937.38
2018-06-07T11:54:45.274Z,937.36
2018-06-07T11:55:45.731Z,937.33
2018-06-07T11:56:45.197Z,937.30
2018-06-07T11:57:45.154Z,937.29
2018-06-07T11:58:45.373Z,937.27
2018-06-07T11:59:45.439Z,937.24
2018-06-07T12:00:45.323Z,937.27
2018-06-07T12:01:45.310Z,937.25
2018-06-07T12:02:45.249Z,937.27
2018-06-07T12:03:45.433Z,937.29
2018-06-07T12:04:45.572Z,937.25
2018-06-07T12:05:45.356Z,937.31
2018-06-07T12:06:45.434Z,937.27
2018-06-07T12:07:45.395Z,937.29
2018-06-07T12:08:45.349Z,937.26
2018-06-07T12:09:45.661Z,937.26
2018-06-07T12:10:45.543Z,937.25
2018-06-07T12:11:45.508Z,937.18
2018-06-07T12:12:45.483Z,937.19
2018-06-07T12:13:45.384Z,937.19
2018-06-07T12:14:45.286Z,937.17
2018-06-07T12:15:45.350Z,937.14
2018-06-07T12:16:45.313Z,937.10
2018-06-07T12:17:45.359Z,937.10
2018-06-07T12:18:45.448Z,937.09
2018-06-07T12:19:45.665Z,937.08
2018-06-07T12:20:45.435Z,937.07
2018-06-07T12:21:45.423Z,937.05
2018-06-07T12:22:45.492Z,937.07
2018-06-07T12:23:45.473Z,936.98
2018-06-07T12:24:45.417Z,937.05
2018-06-07T12:25:45.530Z,937.02
2018-06-07T12:26:45.578Z,937.08
2018-06-07T12:27:45.492Z,937.03
2018-06-07T12:28:45.625Z,937.04
2018-06-07T12:29:45.683Z,937.00
2018-06-07T12:30:45.547Z,936.93
2018-06-07T12:31:45.423Z,936.94
2018-06-07T12:32:45.439Z,936.88
2018-06-07T12:33:45.437Z,936.86
2018-06-07T12:34:45.478Z,936.87
2018-06-07T12:35:45.644Z,936.79
2018-06-07T12:36:45.560Z,936.82
2018-06-07T12:37:45.567Z,936.83
2018-06-07T12:38:45.591Z,936.81
2018-06-07T12:39:45.791Z,936.82
2018-06-07T12:40:45.686Z,936.77
2018-06-07T12:41:45.680Z,936.78
2018-06-07T12:42:45.711Z,936.78
2018-06-07T12:43:45.751Z,936.78
2018-06-07T12:44:45.658Z,936.76
2018-06-07T12:45:45.659Z,936.79
2018-06-07T12:46:45.616Z,936.77
2018-06-07T12:47:45.571Z,936.71